Time;durP1;ratioP1;P1;durP2;ratioP2;P2;SDS_P1;SDS_P2;PMS_P1;PMS_P2;Temp;Humidity;BMP_temperature;BMP_pressure;BME280_temperature;BME280_humidity;BME280_pressure;Samples;Min_cycle;Max_cycle;Signal;HPM_P1;HPM_P2
2022/03/19 00:00:19;;;;;;;42.50;35.63;;;;;21.80;103229.00;;;;2079212;28;20202;-49
2022/03/19 00:01:20;;;;;;;43.13;35.05;;;;;21.80;103232.00;;;;2079276;28;20737;-48
2022/03/19 00:02:20;;;;;;;47.77;36.03;;;;;21.80;103236.00;;;;2079244;28;20220;-49
2022/03/19 00:03:21;;;;;;;42.10;35.10;;;;;21.80;103228.00;;;;2073358;28;20211;-49
2022/03/19 00:04:21;;;;;;;41.23;34.60;;;;;21.80;103236.00;;;;2068585;28;20220;-49
2022/03/19 00:05:21;;;;;;;41.90;33.80;;;;;21.80;103234.00;;;;2070950;28;20221;-49
2022/03/19 00:06:22;;;;;;;43.70;35.90;;;;;21.80;103233.00;;;;2071171;28;20212;-48
2022/03/19 00:07:22;;;;;;;40.60;34.47;;;;;21.80;103235.00;;;;2071480;28;20225;-48
2022/03/19 00:08:23;;;;;;;43.23;34.50;;;;;21.80;103242.00;;;;2062471;28;20203;-49
2022/03/19 00:09:23;;;;;;;40.35;31.95;;;;;21.80;103231.00;;;;2062644;28;20286;-49
2022/03/19 00:10:24;;;;;;;42.70;32.30;;;;;21.80;103235.00;;;;2071407;28;20655;-48
2022/03/19 00:11:24;;;;;;;40.07;32.13;;;;;21.80;103233.00;;;;2071694;28;20301;-48
2022/03/19 00:12:25;;;;;;;37.50;30.73;;;;;21.80;103233.00;;;;2070240;28;20341;-50
2022/03/19 00:13:25;;;;;;;39.17;31.90;;;;;21.80;103228.00;;;;2071541;28;20261;-49
2022/03/19 00:14:25;;;;;;;35.17;29.73;;;;;21.80;103238.00;;;;2070697;28;20218;-49
2022/03/19 00:15:26;;;;;;;38.93;31.83;;;;;21.80;103227.00;;;;2069920;28;20245;-49
2022/03/19 00:16:26;;;;;;;38.50;29.60;;;;;21.80;103231.00;;;;2070708;28;20216;-49
2022/03/19 00:17:27;;;;;;;40.27;30.93;;;;;21.80;103220.00;;;;2069854;28;20210;-48
2022/03/19 00:18:27;;;;;;;35.63;30.37;;;;;21.80;103229.00;;;;2070221;28;20218;-49
2022/03/19 00:19:29;;;;;;;37.40;29.60;;;;;21.80;103226.00;;;;2068598;28;20225;-49
2022/03/19 00:20:31;;;;;;;39.80;31.50;;;;;21.80;103224.00;;;;2071253;28;20289;-49
2022/03/19 00:21:31;;;;;;;36.38;29.15;;;;;21.80;103230.00;;;;2071388;28;20211;-49
2022/03/19 00:22:31;;;;;;;33.50;27.80;;;;;21.80;103230.00;;;;2071594;28;20648;-50
2022/03/19 00:23:32;;;;;;;36.57;28.43;;;;;21.80;103209.00;;;;2070935;28;20241;-49
2022/03/19 00:24:32;;;;;;;34.90;27.93;;;;;21.80;103226.00;;;;2069117;28;20214;-49
2022/03/19 00:25:33;;;;;;;31.33;25.83;;;;;21.80;103222.00;;;;2065760;28;20868;-48
2022/03/19 00:26:33;;;;;;;32.13;26.37;;;;;21.80;103218.00;;;;2071454;28;20297;-49
2022/03/19 00:27:33;;;;;;;34.63;25.43;;;;;21.80;103228.00;;;;2070994;28;20253;-50
2022/03/19 00:28:36;;;;;;;32.63;25.83;;;;;21.70;103219.00;;;;2070682;28;20301;-49
2022/03/19 00:29:36;;;;;;;28.60;24.00;;;;;21.70;103217.00;;;;2071046;28;20644;-49
2022/03/19 00:30:36;;;;;;;28.03;23.57;;;;;21.70;103217.00;;;;2069754;28;20230;-49
2022/03/19 00:31:37;;;;;;;30.20;24.00;;;;;21.70;103219.00;;;;2069416;28;20299;-49
2022/03/19 00:32:37;;;;;;;26.90;23.10;;;;;21.70;103224.00;;;;2071383;28;20233;-48
2022/03/19 00:33:37;;;;;;;30.50;24.40;;;;;21.70;103215.00;;;;2071181;28;20313;-49
2022/03/19 00:34:38;;;;;;;29.63;22.77;;;;;21.70;103218.00;;;;2070675;28;20261;-48
2022/03/19 00:35:38;;;;;;;25.97;22.47;;;;;21.70;103209.00;;;;2069931;28;20237;-49
2022/03/19 00:36:38;;;;;;;29.00;24.50;;;;;21.70;103219.00;;;;2069522;28;20226;-48
2022/03/19 00:37:44;;;;;;;26.83;20.97;;;;;21.70;103210.00;;;;2070614;28;20248;-48
2022/03/19 00:38:44;;;;;;;28.85;23.30;;;;;21.70;103221.00;;;;2075982;28;20264;-48
2022/03/19 00:39:44;;;;;;;25.47;21.87;;;;;21.70;103211.00;;;;2076949;28;20339;-49
2022/03/19 00:40:46;;;;;;;24.50;21.03;;;;;21.70;103211.00;;;;2077866;28;20221;-49
2022/03/19 00:41:46;;;;;;;26.00;21.65;;;;;21.70;103207.00;;;;2075131;28;20349;-49
2022/03/19 00:42:48;;;;;;;27.23;22.17;;;;;21.70;103210.00;;;;2070801;28;20246;-49
2022/03/19 00:43:48;;;;;;;23.65;20.40;;;;;21.70;103207.00;;;;2070094;28;20589;-48
2022/03/19 00:44:48;;;;;;;24.13;20.27;;;;;21.70;103221.00;;;;2070368;28;20218;-49
2022/03/19 00:45:49;;;;;;;27.57;21.10;;;;;21.70;103202.00;;;;2069726;28;20218;-49
2022/03/19 00:46:49;;;;;;;23.83;20.23;;;;;21.70;103205.00;;;;2070384;28;20234;-49
2022/03/19 00:47:50;;;;;;;24.87;20.80;;;;;21.70;103203.00;;;;2069004;28;20218;-49
2022/03/19 00:48:50;;;;;;;23.67;20.20;;;;;21.70;103207.00;;;;2070744;28;20218;-48
2022/03/19 00:49:51;;;;;;;24.87;19.57;;;;;21.70;103206.00;;;;2070292;28;20341;-49
2022/03/19 00:50:51;;;;;;;22.10;19.40;;;;;21.70;103209.00;;;;2070712;28;20218;-49
2022/03/19 00:51:52;;;;;;;21.83;19.13;;;;;21.60;103198.00;;;;2070108;28;20229;-49
2022/03/19 00:52:52;;;;;;;20.50;17.13;;;;;21.60;103203.00;;;;2071225;28;20241;-49
2022/03/19 00:53:52;;;;;;;24.90;20.07;;;;;21.70;103206.00;;;;2070849;28;20221;-54
2022/03/19 00:54:53;;;;;;;22.03;18.43;;;;;21.60;103198.00;;;;2071228;28;21207;-52
2022/03/19 00:55:53;;;;;;;23.03;19.23;;;;;21.60;103196.00;;;;2070222;28;20601;-50
2022/03/19 00:56:53;;;;;;;26.10;18.93;;;;;21.60;103233.00;;;;2071152;28;20733;-49
2022/03/19 00:57:54;;;;;;;20.13;17.43;;;;;21.60;103199.00;;;;2069384;28;20762;-49
2022/03/19 00:58:55;;;;;;;20.07;17.07;;;;;21.60;103201.00;;;;2070927;28;20586;-49
2022/03/19 00:59:55;;;;;;;20.90;18.05;;;;;21.60;103202.00;;;;2071275;28;20209;-48
2022/03/19 01:00:56;;;;;;;20.70;17.50;;;;;21.60;103199.00;;;;2071024;28;20745;-48
2022/03/19 01:01:56;;;;;;;21.80;16.67;;;;;21.60;103201.00;;;;2070864;28;20206;-48
2022/03/19 01:02:56;;;;;;;21.73;17.73;;;;;21.60;103198.00;;;;2070953;28;20206;-48
2022/03/19 01:03:57;;;;;;;22.63;17.40;;;;;21.60;103206.00;;;;2071233;28;20217;-48
2022/03/19 01:04:57;;;;;;;17.80;15.90;;;;;21.60;103206.00;;;;2070108;28;20218;-48
2022/03/19 01:05:57;;;;;;;20.53;16.23;;;;;21.60;103200.00;;;;2070273;28;20294;-49
2022/03/19 01:06:58;;;;;;;20.00;16.10;;;;;21.60;103203.00;;;;2070928;28;20272;-49
2022/03/19 01:07:58;;;;;;;19.67;16.43;;;;;21.60;103203.00;;;;2074542;28;20253;-49
2022/03/19 01:08:58;;;;;;;18.03;16.00;;;;;21.60;103196.00;;;;2070796;28;20214;-49
2022/03/19 01:09:59;;;;;;;18.73;15.97;;;;;21.60;103203.00;;;;2076322;28;20304;-48
2022/03/19 01:10:59;;;;;;;17.40;15.10;;;;;21.60;103200.00;;;;2078375;28;20209;-49
2022/03/19 01:12:00;;;;;;;18.13;15.63;;;;;21.60;103201.00;;;;2078597;28;20561;-48
2022/03/19 01:13:01;;;;;;;17.77;15.67;;;;;21.60;103199.00;;;;2077118;28;20216;-48
2022/03/19 01:14:01;;;;;;;17.67;14.73;;;;;21.60;103196.00;;;;2069461;28;20596;-49
2022/03/19 01:15:02;;;;;;;17.37;15.00;;;;;21.60;103196.00;;;;2068564;28;20218;-49
2022/03/19 01:16:03;;;;;;;20.10;16.37;;;;;21.60;103189.00;;;;2069146;28;20218;-49
2022/03/19 01:17:03;;;;;;;18.47;14.93;;;;;21.60;103197.00;;;;2070192;28;20221;-48
2022/03/19 01:18:04;;;;;;;15.33;13.73;;;;;21.50;103196.00;;;;2070113;28;20381;-49
2022/03/19 01:19:04;;;;;;;17.77;14.10;;;;;21.60;103197.00;;;;2076896;28;20229;-48
2022/03/19 01:20:05;;;;;;;16.30;13.53;;;;;21.50;103187.00;;;;2078294;28;20217;-49
2022/03/19 01:21:05;;;;;;;17.77;14.50;;;;;21.60;103188.00;;;;2070391;28;20272;-48
2022/03/19 01:22:06;;;;;;;17.37;14.40;;;;;21.60;103198.00;;;;2070184;28;20218;-48
2022/03/19 01:23:06;;;;;;;15.93;14.23;;;;;21.50;103186.00;;;;2070180;28;20249;-48
2022/03/19 01:24:06;;;;;;;18.00;14.47;;;;;21.50;103192.00;;;;2070539;28;20218;-48
2022/03/19 01:25:08;;;;;;;16.90;14.30;;;;;21.60;103199.00;;;;2070957;28;20237;-49
2022/03/19 01:26:08;;;;;;;15.70;13.27;;;;;21.50;103198.00;;;;2072237;28;20728;-48
2022/03/19 01:27:09;;;;;;;17.93;12.80;;;;;21.50;103192.00;;;;2078737;28;20217;-49
2022/03/19 01:28:09;;;;;;;15.60;13.37;;;;;21.50;103191.00;;;;2078766;28;20205;-49
2022/03/19 01:29:09;;;;;;;14.40;13.00;;;;;21.50;103194.00;;;;2077977;28;20210;-49
2022/03/19 01:30:14;;;;;;;19.60;13.60;;;;;21.50;103195.00;;;;2070939;28;20248;-49
2022/03/19 01:31:15;;;;;;;15.07;13.35;;;;;21.50;103189.00;;;;2070403;28;20222;-49
2022/03/19 01:32:15;;;;;;;16.97;13.10;;;;;21.50;103196.00;;;;2070774;28;20210;-49
2022/03/19 01:33:15;;;;;;;14.10;11.80;;;;;21.50;103191.00;;;;2070801;28;20721;-49
2022/03/19 01:34:16;;;;;;;15.80;12.63;;;;;21.50;103192.00;;;;2069389;28;20210;-48
2022/03/19 01:35:16;;;;;;;16.07;12.90;;;;;21.50;103187.00;;;;2070775;28;20206;-49
2022/03/19 01:36:17;;;;;;;13.53;12.13;;;;;21.50;103188.00;;;;2070089;28;20302;-48
2022/03/19 01:37:17;;;;;;;15.60;12.07;;;;;21.50;103189.00;;;;2070771;28;20293;-49
2022/03/19 01:38:18;;;;;;;16.03;11.60;;;;;21.50;103188.00;;;;2070545;28;20626;-49
2022/03/19 01:39:19;;;;;;;13.93;11.63;;;;;21.50;103191.00;;;;2073865;28;20209;-49
2022/03/19 01:40:20;;;;;;;13.05;11.25;;;;;21.50;103184.00;;;;2078911;28;20293;-49
2022/03/19 01:41:20;;;;;;;12.43;11.00;;;;;21.50;103195.00;;;;2079090;28;20228;-48
2022/03/19 01:42:28;;;;;;;13.80;11.17;;;;;21.50;103187.00;;;;2078853;28;20245;-48
2022/03/19 01:43:28;;;;;;;14.73;11.50;;;;;21.50;103187.00;;;;2072014;28;20213;-48
2022/03/19 01:44:29;;;;;;;12.03;10.73;;;;;21.50;103185.00;;;;2083832;28;20264;-49
2022/03/19 01:45:29;;;;;;;14.53;11.00;;;;;21.50;103178.00;;;;2082239;28;20209;-48
2022/03/19 01:46:29;;;;;;;15.57;11.33;;;;;21.50;103184.00;;;;2078158;28;20213;-49
2022/03/19 01:47:30;;;;;;;14.00;11.90;;;;;21.50;103190.00;;;;2077771;28;20214;-48
2022/03/19 01:48:30;;;;;;;14.10;11.33;;;;;21.50;103190.00;;;;2078626;28;20304;-49
2022/03/19 01:49:30;;;;;;;12.43;10.57;;;;;21.50;103191.00;;;;2076136;28;20225;-48
2022/03/19 01:50:31;;;;;;;14.40;11.10;;;;;21.50;103180.00;;;;2072517;28;20218;-49
2022/03/19 01:51:32;;;;;;;12.20;9.97;;;;;21.40;103186.00;;;;2070636;28;20221;-48
2022/03/19 01:52:32;;;;;;;14.83;11.90;;;;;21.40;103181.00;;;;2070805;28;20220;-49
2022/03/19 01:53:33;;;;;;;12.50;10.80;;;;;21.40;103186.00;;;;2070343;28;20498;-50
2022/03/19 01:54:34;;;;;;;12.93;10.30;;;;;21.40;103179.00;;;;2067245;28;20245;-49
2022/03/19 01:55:35;;;;;;;12.48;10.60;;;;;21.40;103180.00;;;;2060542;28;20218;-49
2022/03/19 01:56:35;;;;;;;12.03;10.83;;;;;21.40;103175.00;;;;2069108;28;20233;-49
2022/03/19 01:57:38;;;;;;;11.40;10.23;;;;;21.40;103182.00;;;;2061519;28;20215;-49
2022/03/19 01:58:38;;;;;;;11.38;10.18;;;;;21.40;103187.00;;;;2061448;28;20222;-48
2022/03/19 01:59:39;;;;;;;13.03;10.83;;;;;21.40;103185.00;;;;2069800;28;20218;-50
2022/03/19 02:00:39;;;;;;;11.07;9.43;;;;;21.40;103189.00;;;;2069634;28;20225;-49
2022/03/19 02:01:39;;;;;;;11.20;10.00;;;;;21.40;103181.00;;;;2069943;28;20213;-49
2022/03/19 02:02:40;;;;;;;10.93;9.83;;;;;21.40;103181.00;;;;2069250;28;20224;-48
2022/03/19 02:03:40;;;;;;;11.80;9.60;;;;;21.40;103183.00;;;;2061138;28;20215;-49
2022/03/19 02:04:41;;;;;;;11.00;9.90;;;;;21.40;103176.00;;;;2069264;28;20215;-48
2022/03/19 02:05:41;;;;;;;12.27;9.60;;;;;21.40;103188.00;;;;2078396;28;20221;-49
2022/03/19 02:06:41;;;;;;;10.87;9.67;;;;;21.40;103189.00;;;;2077744;28;20871;-50
2022/03/19 02:07:42;;;;;;;12.43;8.67;;;;;21.40;103184.00;;;;2077807;28;20726;-49
2022/03/19 02:08:44;;;;;;;11.60;9.30;;;;;21.40;103182.00;;;;2076183;28;20725;-49
2022/03/19 02:09:45;;;;;;;9.65;8.52;;;;;21.40;103184.00;;;;2069854;28;20461;-48
2022/03/19 02:10:45;;;;;;;11.63;9.70;;;;;21.40;103182.00;;;;2069784;28;20264;-48
2022/03/19 02:11:45;;;;;;;9.37;8.40;;;;;21.40;103173.00;;;;2070761;28;20218;-49
2022/03/19 02:12:46;;;;;;;10.67;9.57;;;;;21.40;103176.00;;;;2070708;28;20241;-48
2022/03/19 02:13:46;;;;;;;11.30;9.40;;;;;21.40;103185.00;;;;2070741;28;20210;-48
2022/03/19 02:14:48;;;;;;;9.73;8.83;;;;;21.40;103179.00;;;;2070288;28;20218;-48
2022/03/19 02:15:48;;;;;;;9.85;8.85;;;;;21.40;103178.00;;;;2070063;28;20221;-49
2022/03/19 02:16:49;;;;;;;11.13;9.30;;;;;21.40;103166.00;;;;2070082;28;20206;-49
2022/03/19 02:17:49;;;;;;;9.83;8.83;;;;;21.40;103174.00;;;;2069982;28;20217;-48
2022/03/19 02:18:50;;;;;;;9.17;8.23;;;;;21.40;103179.00;;;;2061876;28;20211;-49
2022/03/19 02:19:52;;;;;;;11.77;8.95;;;;;21.40;103182.00;;;;2069916;28;20230;-48
2022/03/19 02:20:57;;;;;;;9.60;8.55;;;;;21.40;103172.00;;;;2070650;28;20217;-49
2022/03/19 02:21:58;;;;;;;10.27;8.82;;;;;21.40;103178.00;;;;2070659;28;20221;-48
2022/03/19 02:25:36;;;;;;;9.20;8.25;;;;;21.30;103177.00;;;;2077846;28;20220;-48
2022/03/19 02:26:41;;;;;;;10.67;9.00;;;;;21.30;103185.00;;;;2078541;28;20217;-49
2022/03/19 02:27:42;;;;;;;10.45;8.40;;;;;21.30;103182.00;;;;2078276;28;20339;-49
2022/03/19 02:28:42;;;;;;;9.10;8.10;;;;;21.30;103177.00;;;;2078348;28;20763;-49
2022/03/19 02:29:42;;;;;;;9.40;8.00;;;;;21.30;103166.00;;;;2078564;28;20609;-49
2022/03/19 02:30:43;;;;;;;8.97;7.73;;;;;21.30;103175.00;;;;2078568;28;20585;-49
2022/03/19 02:31:44;;;;;;;8.90;8.00;;;;;21.30;103169.00;;;;2069843;28;20608;-49
2022/03/19 02:32:49;;;;;;;8.60;6.88;;;;;21.30;103169.00;;;;2069948;28;20210;-49
2022/03/19 02:33:49;;;;;;;9.25;8.35;;;;;21.30;103175.00;;;;2070339;28;20232;-48
2022/03/19 02:34:50;;;;;;;8.43;7.50;;;;;21.30;103165.00;;;;2069969;28;20214;-47
2022/03/19 02:35:50;;;;;;;8.90;8.00;;;;;21.30;103170.00;;;;2069258;28;20220;-47
2022/03/19 02:36:51;;;;;;;10.00;8.73;;;;;21.30;103171.00;;;;2069605;28;20214;-48
2022/03/19 02:37:51;;;;;;;8.93;7.80;;;;;21.30;103160.00;;;;2069882;28;20218;-49
2022/03/19 02:38:51;;;;;;;8.87;7.97;;;;;21.30;103174.00;;;;2070272;28;20218;-49
2022/03/19 02:39:52;;;;;;;10.63;8.17;;;;;21.30;103166.00;;;;2067599;28;21134;-48
2022/03/19 02:40:52;;;;;;;8.77;7.90;;;;;21.30;103167.00;;;;2070622;28;20714;-48
2022/03/19 02:41:52;;;;;;;9.40;7.80;;;;;21.30;103162.00;;;;2070585;28;20301;-49
2022/03/19 02:42:54;;;;;;;9.20;8.00;;;;;21.30;103158.00;;;;2069759;28;20233;-49
2022/03/19 02:43:55;;;;;;;8.23;7.43;;;;;21.30;103169.00;;;;2068922;28;20225;-49
2022/03/19 02:44:56;;;;;;;9.10;7.85;;;;;21.30;103158.00;;;;2069838;28;20248;-49
2022/03/19 02:45:58;;;;;;;7.90;7.03;;;;;21.30;103157.00;;;;2069116;28;20222;-48
2022/03/19 02:47:03;;;;;;;8.32;7.53;;;;;21.30;103159.00;;;;2068978;28;20219;-49
2022/03/19 02:48:03;;;;;;;8.45;7.18;;;;;21.30;103158.00;;;;2069883;28;20564;-49
2022/03/19 02:49:04;;;;;;;9.20;7.43;;;;;21.30;103154.00;;;;2069236;28;20281;-49
2022/03/19 02:50:04;;;;;;;10.73;7.23;;;;;21.30;103161.00;;;;2069989;28;20225;-49
2022/03/19 02:51:08;;;;;;;8.73;7.83;;;;;21.30;103157.00;;;;2069317;28;20220;-49
2022/03/19 02:52:08;;;;;;;8.32;7.53;;;;;21.30;103153.00;;;;2069979;28;20275;-49
2022/03/19 02:53:10;;;;;;;9.20;7.10;;;;;21.30;103155.00;;;;2069682;28;20272;-49
2022/03/19 02:54:13;;;;;;;8.07;6.63;;;;;21.30;103157.00;;;;2069934;28;20214;-48
2022/03/19 02:55:13;;;;;;;9.43;7.65;;;;;21.30;103152.00;;;;2069134;28;20558;-49
2022/03/19 02:56:13;;;;;;;8.30;7.37;;;;;21.30;103152.00;;;;2068925;28;20220;-49
2022/03/19 02:57:14;;;;;;;7.73;6.90;;;;;21.30;103152.00;;;;2070006;28;20214;-48
2022/03/19 02:58:14;;;;;;;7.90;7.10;;;;;21.20;103151.00;;;;2070277;28;20221;-49
2022/03/19 02:59:20;;;;;;;9.50;7.37;;;;;21.30;103153.00;;;;2070223;28;20233;-49
2022/03/19 03:00:22;;;;;;;8.52;6.60;;;;;21.30;103153.00;;;;2068407;28;20653;-51
2022/03/19 03:01:22;;;;;;;7.50;6.68;;;;;21.20;103147.00;;;;2068746;28;20221;-48
2022/03/19 03:02:22;;;;;;;7.53;6.80;;;;;21.20;103141.00;;;;2075480;28;20294;-49
2022/03/19 03:03:23;;;;;;;7.33;6.63;;;;;21.20;103151.00;;;;2076866;28;20278;-48
2022/03/19 03:04:24;;;;;;;7.67;6.63;;;;;21.20;103148.00;;;;2080143;28;20213;-49
2022/03/19 03:05:24;;;;;;;7.27;6.50;;;;;21.20;103153.00;;;;2079214;28;20444;-49
2022/03/19 03:06:25;;;;;;;8.67;7.77;;;;;21.20;103144.00;;;;2080079;28;20209;-49
2022/03/19 03:07:25;;;;;;;7.13;6.40;;;;;21.20;103144.00;;;;2079549;28;20217;-49
2022/03/19 03:08:25;;;;;;;8.30;6.80;;;;;21.20;103142.00;;;;2079788;28;20293;-49
2022/03/19 03:09:27;;;;;;;7.27;6.47;;;;;21.20;103142.00;;;;2080047;28;20221;-49
2022/03/19 03:10:27;;;;;;;8.77;6.85;;;;;21.20;103136.00;;;;2080125;28;20303;-49
2022/03/19 03:11:28;;;;;;;7.60;6.53;;;;;21.20;103133.00;;;;2071180;28;20921;-49
2022/03/19 03:12:28;;;;;;;8.47;6.23;;;;;21.20;103136.00;;;;2071048;28;20785;-49
2022/03/19 03:13:28;;;;;;;7.00;6.30;;;;;21.20;103089.00;;;;2080218;28;20585;-49
2022/03/19 03:14:29;;;;;;;7.87;6.47;;;;;21.20;103140.00;;;;2068462;28;20577;-49
2022/03/19 03:15:29;;;;;;;6.93;6.23;;;;;21.20;103142.00;;;;2078465;28;20581;-49
2022/03/19 03:16:29;;;;;;;7.83;6.40;;;;;21.20;103130.00;;;;2078266;28;20241;-49
2022/03/19 03:17:30;;;;;;;6.90;6.20;;;;;21.20;103136.00;;;;2067270;28;20216;-49
2022/03/19 03:18:31;;;;;;;7.97;6.17;;;;;21.20;103134.00;;;;2078693;28;20267;-49
2022/03/19 03:19:33;;;;;;;7.68;6.88;;;;;21.20;103134.00;;;;2076535;28;20222;-49
2022/03/19 03:20:34;;;;;;;7.40;6.60;;;;;21.20;103134.00;;;;2070262;28;20905;-49
2022/03/19 03:21:35;;;;;;;8.23;6.20;;;;;21.20;103135.00;;;;2078485;28;20213;-49
2022/03/19 03:22:37;;;;;;;7.57;6.43;;;;;21.20;103153.00;;;;2079628;28;20210;-49
2022/03/19 03:23:38;;;;;;;7.10;6.40;;;;;21.20;103137.00;;;;2078342;28;20221;-49
2022/03/19 03:24:38;;;;;;;7.40;6.50;;;;;21.20;103135.00;;;;2079234;28;20568;-49
2022/03/19 03:25:38;;;;;;;8.80;6.57;;;;;21.20;103126.00;;;;2078939;28;20224;-49
2022/03/19 03:26:39;;;;;;;6.87;5.30;;;;;21.20;103132.00;;;;2079547;28;20221;-49
2022/03/19 03:27:39;;;;;;;6.80;5.60;;;;;21.20;103126.00;;;;2079406;28;20233;-49
2022/03/19 03:28:40;;;;;;;7.43;6.60;;;;;21.20;103134.00;;;;2076921;28;20691;-49
2022/03/19 03:29:41;;;;;;;7.85;6.85;;;;;21.20;103127.00;;;;2079517;28;20217;-49
2022/03/19 03:30:42;;;;;;;7.27;6.57;;;;;21.20;103139.00;;;;2071136;28;20218;-49
2022/03/19 03:31:42;;;;;;;6.60;6.00;;;;;21.20;103132.00;;;;2071536;28;20225;-49
2022/03/19 03:32:43;;;;;;;6.40;5.77;;;;;21.20;103136.00;;;;2071188;28;20233;-49
2022/03/19 03:33:43;;;;;;;6.40;5.80;;;;;21.20;103124.00;;;;2071590;28;20902;-49
2022/03/19 03:34:44;;;;;;;6.20;5.60;;;;;21.20;103122.00;;;;2071393;28;20457;-49
2022/03/19 03:35:44;;;;;;;6.90;5.93;;;;;21.10;103129.00;;;;2070333;28;20213;-48
2022/03/19 03:36:45;;;;;;;6.87;5.93;;;;;21.10;103124.00;;;;2069264;28;20218;-49
2022/03/19 03:37:46;;;;;;;6.53;5.93;;;;;21.10;103144.00;;;;2068343;28;20218;-49
2022/03/19 03:38:47;;;;;;;7.15;6.53;;;;;21.10;103118.00;;;;2071004;28;20226;-48
2022/03/19 03:39:47;;;;;;;6.45;5.85;;;;;21.10;103122.00;;;;2069659;28;20220;-49
2022/03/19 03:40:48;;;;;;;8.03;5.80;;;;;21.10;103122.00;;;;2077320;28;20264;-49
2022/03/19 03:41:48;;;;;;;6.30;5.03;;;;;21.10;103125.00;;;;2072418;28;20301;-49
2022/03/19 03:42:49;;;;;;;6.37;5.77;;;;;21.10;103120.00;;;;2071075;28;20211;-49
2022/03/19 03:43:49;;;;;;;5.63;5.13;;;;;21.10;103120.00;;;;2070325;28;20214;-49
2022/03/19 03:44:49;;;;;;;6.43;5.83;;;;;21.10;103108.00;;;;2070035;28;20206;-49
2022/03/19 03:45:50;;;;;;;5.73;5.17;;;;;21.10;103116.00;;;;2069773;28;20217;-49
2022/03/19 03:46:51;;;;;;;7.33;5.73;;;;;21.10;103115.00;;;;2068736;28;20233;-49
2022/03/19 03:47:52;;;;;;;6.82;6.13;;;;;21.10;103118.00;;;;2070536;28;20658;-49
2022/03/19 03:48:53;;;;;;;6.63;5.55;;;;;21.10;103116.00;;;;2071334;28;20646;-49
2022/03/19 03:49:53;;;;;;;6.13;5.30;;;;;21.10;103115.00;;;;2070986;28;20214;-49
2022/03/19 03:50:56;;;;;;;6.30;5.70;;;;;21.10;103108.00;;;;2070523;28;20217;-49
2022/03/19 03:51:57;;;;;;;5.60;5.10;;;;;21.10;103114.00;;;;2065766;28;20218;-48
2022/03/19 03:52:58;;;;;;;6.03;4.63;;;;;21.10;103119.00;;;;2070930;28;20240;-49
2022/03/19 03:53:59;;;;;;;6.80;6.13;;;;;21.10;103111.00;;;;2079063;28;20205;-49
2022/03/19 03:55:00;;;;;;;7.70;5.95;;;;;21.10;103113.00;;;;2079538;28;20452;-49
2022/03/19 03:56:00;;;;;;;6.00;5.17;;;;;21.10;103114.00;;;;2075149;28;20244;-49
2022/03/19 03:57:00;;;;;;;6.20;5.60;;;;;21.10;103115.00;;;;2072836;28;20240;-48
2022/03/19 03:58:01;;;;;;;6.70;6.00;;;;;21.10;103111.00;;;;2078088;28;20222;-49
2022/03/19 03:59:01;;;;;;;6.20;5.60;;;;;21.10;103101.00;;;;2074342;28;20292;-48
2022/03/19 04:00:03;;;;;;;5.83;5.23;;;;;21.10;103104.00;;;;2062419;28;20214;-49
2022/03/19 04:01:04;;;;;;;6.30;5.70;;;;;21.10;103109.00;;;;2077252;28;20729;-48
2022/03/19 04:02:04;;;;;;;5.90;5.33;;;;;21.10;103101.00;;;;2077941;28;20280;-49
2022/03/19 04:03:04;;;;;;;6.97;5.27;;;;;21.10;103112.00;;;;2074992;28;20271;-49
2022/03/19 04:04:05;;;;;;;6.97;5.90;;;;;21.10;103105.00;;;;2079321;28;20240;-49
2022/03/19 04:05:06;;;;;;;6.00;5.50;;;;;21.10;103109.00;;;;2074941;28;20221;-49
2022/03/19 04:06:07;;;;;;;6.50;5.60;;;;;21.10;103095.00;;;;2078486;28;20237;-49
2022/03/19 04:07:07;;;;;;;9.63;5.23;;;;;21.10;103105.00;;;;2074935;28;20840;-49
2022/03/19 04:08:07;;;;;;;6.83;5.83;;;;;21.10;103106.00;;;;2072373;28;20580;-49
2022/03/19 04:09:08;;;;;;;6.23;5.23;;;;;21.10;103112.00;;;;2073486;28;20662;-49
2022/03/19 04:10:09;;;;;;;6.50;5.20;;;;;21.10;103102.00;;;;2070509;28;20217;-49
2022/03/19 04:11:09;;;;;;;5.07;4.57;;;;;21.10;103113.00;;;;2070759;28;20296;-49
2022/03/19 04:12:10;;;;;;;6.30;5.70;;;;;21.00;103111.00;;;;2069892;28;20214;-49
2022/03/19 04:13:10;;;;;;;5.80;5.30;;;;;21.00;103102.00;;;;2070429;28;20214;-49
2022/03/19 04:14:11;;;;;;;6.53;5.50;;;;;21.00;103105.00;;;;2070498;28;20450;-49
2022/03/19 04:15:11;;;;;;;6.43;5.27;;;;;21.00;103106.00;;;;2069819;28;20210;-49
2022/03/19 04:16:12;;;;;;;6.70;6.10;;;;;21.00;103096.00;;;;2070078;28;20218;-49
2022/03/19 04:17:12;;;;;;;6.23;5.60;;;;;21.00;103109.00;;;;2070288;28;20206;-48
2022/03/19 04:18:15;;;;;;;5.27;4.73;;;;;21.00;103111.00;;;;2070505;28;20304;-49
2022/03/19 04:19:16;;;;;;;6.13;5.43;;;;;21.00;103101.00;;;;2070291;28;20577;-49
2022/03/19 04:20:16;;;;;;;6.00;4.80;;;;;21.00;103111.00;;;;2068461;28;20286;-49
2022/03/19 04:21:17;;;;;;;5.50;5.00;;;;;21.00;103107.00;;;;2071444;28;20214;-49
2022/03/19 04:22:17;;;;;;;6.77;5.30;;;;;21.00;103107.00;;;;2074259;28;20213;-49
2022/03/19 04:23:18;;;;;;;6.07;5.47;;;;;21.00;103101.00;;;;2078239;28;20220;-49
2022/03/19 04:24:18;;;;;;;6.50;5.00;;;;;21.00;103104.00;;;;2079344;28;20214;-49
2022/03/19 04:25:20;;;;;;;5.33;4.80;;;;;21.00;103107.00;;;;2077495;28;20253;-48
2022/03/19 04:26:21;;;;;;;5.35;4.85;;;;;21.00;103100.00;;;;2078998;28;20213;-48
2022/03/19 04:27:22;;;;;;;6.25;5.30;;;;;21.00;103098.00;;;;2069192;28;20296;-49
2022/03/19 04:28:22;;;;;;;6.73;5.40;;;;;21.00;103105.00;;;;2070052;28;20222;-48
2022/03/19 04:29:23;;;;;;;6.30;5.13;;;;;21.00;103109.00;;;;2078832;28;20222;-48
2022/03/19 04:30:26;;;;;;;6.43;5.50;;;;;21.00;103079.00;;;;2072603;28;20216;-48
2022/03/19 04:31:27;;;;;;;7.40;5.40;;;;;21.00;103105.00;;;;2082460;28;21017;-49
2022/03/19 04:32:28;;;;;;;5.75;5.22;;;;;21.00;103106.00;;;;2073776;28;20221;-48
2022/03/19 04:33:28;;;;;;;5.47;4.90;;;;;21.00;103111.00;;;;2078490;28;20209;-48
2022/03/19 04:34:28;;;;;;;5.70;5.03;;;;;21.00;103101.00;;;;2078745;28;20209;-48
2022/03/19 04:36:48;;;;;;;6.90;5.32;;;;;21.00;103112.00;;;;2079299;28;20681;-48
2022/03/19 04:37:49;;;;;;;5.30;4.80;;;;;21.00;103112.00;;;;2079071;28;20296;-48
2022/03/19 04:38:49;;;;;;;5.57;4.90;;;;;21.00;103117.00;;;;2079185;28;20233;-49
2022/03/19 04:39:49;;;;;;;5.27;4.73;;;;;21.00;103113.00;;;;2079110;28;20220;-49
2022/03/19 04:40:51;;;;;;;5.60;5.07;;;;;21.00;103112.00;;;;2078996;28;20210;-49
2022/03/19 04:41:52;;;;;;;5.15;4.65;;;;;21.00;103113.00;;;;2078184;28;21075;-48
2022/03/19 04:42:52;;;;;;;6.15;4.75;;;;;21.00;103114.00;;;;2071199;28;20309;-48
2022/03/19 04:43:53;;;;;;;4.90;4.43;;;;;21.00;103117.00;;;;2074107;28;20210;-48
2022/03/19 04:44:55;;;;;;;5.60;4.97;;;;;21.00;103111.00;;;;2065236;28;20237;-48
2022/03/19 04:45:55;;;;;;;7.10;5.70;;;;;21.00;103110.00;;;;2085950;28;20228;-48
2022/03/19 04:46:55;;;;;;;5.47;4.97;;;;;21.00;103105.00;;;;2078507;28;20214;-48
2022/03/19 04:47:56;;;;;;;5.50;4.70;;;;;21.00;103103.00;;;;2074962;28;20221;-48
2022/03/19 04:48:56;;;;;;;5.47;4.70;;;;;21.00;103102.00;;;;2070238;28;20206;-48
2022/03/19 04:49:57;;;;;;;6.70;5.47;;;;;21.00;103100.00;;;;2068885;28;20221;-48
2022/03/19 04:50:57;;;;;;;5.23;4.67;;;;;21.00;103107.00;;;;2078118;28;20292;-48
2022/03/19 04:51:58;;;;;;;5.20;4.70;;;;;21.00;103103.00;;;;2078166;28;20214;-48
2022/03/19 04:52:58;;;;;;;6.20;4.80;;;;;21.00;103110.00;;;;2077717;28;20240;-48
2022/03/19 04:53:59;;;;;;;5.27;4.50;;;;;21.00;103096.00;;;;2078298;28;20741;-49
2022/03/19 04:55:00;;;;;;;5.07;4.57;;;;;21.00;103105.00;;;;2076166;28;20240;-49
2022/03/19 04:56:01;;;;;;;5.80;4.80;;;;;21.00;103107.00;;;;2076989;28;20359;-49
2022/03/19 04:57:02;;;;;;;6.20;4.60;;;;;21.00;103098.00;;;;2076646;28;20624;-49
2022/03/19 04:58:03;;;;;;;5.28;4.30;;;;;20.90;103105.00;;;;2078230;28;20681;-49
2022/03/19 04:59:04;;;;;;;6.22;4.90;;;;;20.90;103096.00;;;;2078418;28;20594;-49
2022/03/19 05:00:07;;;;;;;7.17;5.07;;;;;20.90;103096.00;;;;2078387;28;20210;-49
2022/03/19 05:01:08;;;;;;;5.25;4.65;;;;;20.90;103096.00;;;;2077376;28;20779;-48